sensor_id;sensor_type;location;lat;lon;timestamp;P1;durP1;ratioP1;P2;durP2;ratioP2
58992;SDS011;44782;0.000;0.000;2023-05-10T00:01:12;2.27;;;1.70;;
58992;SDS011;44782;0.000;0.000;2023-05-10T00:03:28;2.10;;;1.90;;
58992;SDS011;44782;0.000;0.000;2023-05-10T00:05:43;2.67;;;1.93;;
58992;SDS011;44782;0.000;0.000;2023-05-10T00:07:59;2.17;;;1.93;;
58992;SDS011;44782;0.000;0.000;2023-05-10T00:10:15;2.23;;;1.60;;
58992;SDS011;44782;0.000;0.000;2023-05-10T00:12:30;2.77;;;1.87;;
58992;SDS011;44782;0.000;0.000;2023-05-10T00:14:46;1.97;;;1.67;;
58992;SDS011;44782;0.000;0.000;2023-05-10T00:17:02;1.87;;;1.60;;
58992;SDS011;44782;0.000;0.000;2023-05-10T00:19:18;2.13;;;1.70;;
58992;SDS011;44782;0.000;0.000;2023-05-10T00:21:33;2.27;;;1.93;;
58992;SDS011;44782;0.000;0.000;2023-05-10T00:23:49;1.70;;;1.60;;
58992;SDS011;44782;0.000;0.000;2023-05-10T00:26:05;2.03;;;1.77;;
58992;SDS011;44782;0.000;0.000;2023-05-10T00:28:21;2.00;;;1.63;;
58992;SDS011;44782;0.000;0.000;2023-05-10T00:30:36;1.90;;;1.80;;
58992;SDS011;44782;0.000;0.000;2023-05-10T00:32:52;1.80;;;1.70;;
58992;SDS011;44782;0.000;0.000;2023-05-10T00:35:08;2.33;;;1.87;;
58992;SDS011;44782;0.000;0.000;2023-05-10T00:37:23;2.17;;;1.53;;
58992;SDS011;44782;0.000;0.000;2023-05-10T00:39:39;1.80;;;1.70;;
58992;SDS011;44782;0.000;0.000;2023-05-10T00:41:55;1.80;;;1.50;;
58992;SDS011;44782;0.000;0.000;2023-05-10T00:44:10;2.13;;;1.70;;
58992;SDS011;44782;0.000;0.000;2023-05-10T00:46:26;2.80;;;1.77;;
58992;SDS011;44782;0.000;0.000;2023-05-10T00:48:43;2.03;;;1.40;;
58992;SDS011;44782;0.000;0.000;2023-05-10T00:51:00;1.80;;;1.50;;
58992;SDS011;44782;0.000;0.000;2023-05-10T00:53:19;1.93;;;1.60;;
58992;SDS011;44782;0.000;0.000;2023-05-10T00:55:35;1.93;;;1.70;;
58992;SDS011;44782;0.000;0.000;2023-05-10T00:57:52;2.00;;;1.80;;
58992;SDS011;44782;0.000;0.000;2023-05-10T01:00:08;1.60;;;1.50;;
58992;SDS011;44782;0.000;0.000;2023-05-10T01:02:26;1.83;;;1.63;;
58992;SDS011;44782;0.000;0.000;2023-05-10T01:04:42;2.10;;;1.47;;
58992;SDS011;44782;0.000;0.000;2023-05-10T01:06:58;1.83;;;1.60;;
58992;SDS011;44782;0.000;0.000;2023-05-10T01:09:14;2.53;;;1.57;;
58992;SDS011;44782;0.000;0.000;2023-05-10T01:11:30;1.83;;;1.40;;
58992;SDS011;44782;0.000;0.000;2023-05-10T01:13:46;1.50;;;1.40;;
58992;SDS011;44782;0.000;0.000;2023-05-10T01:16:07;2.87;;;1.50;;
58992;SDS011;44782;0.000;0.000;2023-05-10T01:18:23;2.00;;;1.53;;
58992;SDS011;44782;0.000;0.000;2023-05-10T01:20:40;2.20;;;1.40;;
58992;SDS011;44782;0.000;0.000;2023-05-10T01:28:16;1.50;;;1.40;;
58992;SDS011;44782;0.000;0.000;2023-05-10T01:33:09;1.70;;;1.60;;
58992;SDS011;44782;0.000;0.000;2023-05-10T01:35:35;1.43;;;1.33;;
58992;SDS011;44782;0.000;0.000;2023-05-10T01:38:22;1.40;;;1.30;;
58992;SDS011;44782;0.000;0.000;2023-05-10T01:40:47;1.90;;;1.50;;
58992;SDS011;44782;0.000;0.000;2023-05-10T01:43:11;1.40;;;1.30;;
58992;SDS011;44782;0.000;0.000;2023-05-10T01:48:27;1.70;;;1.60;;
58992;SDS011;44782;0.000;0.000;2023-05-10T01:50:43;2.10;;;1.30;;
58992;SDS011;44782;0.000;0.000;2023-05-10T01:53:02;1.50;;;1.40;;
58992;SDS011;44782;0.000;0.000;2023-05-10T01:55:21;2.77;;;1.60;;
58992;SDS011;44782;0.000;0.000;2023-05-10T01:57:40;1.63;;;1.30;;
58992;SDS011;44782;0.000;0.000;2023-05-10T01:59:58;1.80;;;1.43;;
58992;SDS011;44782;0.000;0.000;2023-05-10T02:02:16;1.67;;;1.50;;
58992;SDS011;44782;0.000;0.000;2023-05-10T02:04:35;1.43;;;1.33;;
58992;SDS011;44782;0.000;0.000;2023-05-10T02:06:53;1.73;;;1.33;;
58992;SDS011;44782;0.000;0.000;2023-05-10T02:09:11;1.50;;;1.33;;
58992;SDS011;44782;0.000;0.000;2023-05-10T02:11:28;1.90;;;1.40;;
58992;SDS011;44782;0.000;0.000;2023-05-10T02:13:45;1.30;;;1.20;;
58992;SDS011;44782;0.000;0.000;2023-05-10T02:16:04;1.53;;;1.43;;
58992;SDS011;44782;0.000;0.000;2023-05-10T02:18:21;1.40;;;1.30;;
58992;SDS011;44782;0.000;0.000;2023-05-10T02:20:38;1.30;;;1.13;;
58992;SDS011;44782;0.000;0.000;2023-05-10T02:22:54;1.57;;;1.40;;
58992;SDS011;44782;0.000;0.000;2023-05-10T02:25:12;1.53;;;1.20;;
58992;SDS011;44782;0.000;0.000;2023-05-10T02:27:30;1.73;;;1.50;;
58992;SDS011;44782;0.000;0.000;2023-05-10T02:29:49;1.33;;;1.23;;
58992;SDS011;44782;0.000;0.000;2023-05-10T02:32:06;1.50;;;1.40;;
58992;SDS011;44782;0.000;0.000;2023-05-10T02:34:28;1.37;;;1.20;;
58992;SDS011;44782;0.000;0.000;2023-05-10T02:36:45;2.30;;;1.50;;
58992;SDS011;44782;0.000;0.000;2023-05-10T02:39:05;1.40;;;1.30;;
58992;SDS011;44782;0.000;0.000;2023-05-10T02:41:25;1.70;;;1.30;;
58992;SDS011;44782;0.000;0.000;2023-05-10T02:43:42;1.50;;;1.17;;
58992;SDS011;44782;0.000;0.000;2023-05-10T02:45:58;1.63;;;1.30;;
58992;SDS011;44782;0.000;0.000;2023-05-10T02:48:13;1.40;;;1.17;;
58992;SDS011;44782;0.000;0.000;2023-05-10T02:50:30;1.40;;;1.30;;
58992;SDS011;44782;0.000;0.000;2023-05-10T02:52:51;1.33;;;1.23;;
58992;SDS011;44782;0.000;0.000;2023-05-10T02:55:15;1.20;;;1.10;;
58992;SDS011;44782;0.000;0.000;2023-05-10T02:57:33;2.13;;;1.30;;
58992;SDS011;44782;0.000;0.000;2023-05-10T02:59:49;1.00;;;1.00;;
58992;SDS011;44782;0.000;0.000;2023-05-10T03:02:05;1.23;;;1.13;;
58992;SDS011;44782;0.000;0.000;2023-05-10T03:04:21;1.50;;;1.40;;
58992;SDS011;44782;0.000;0.000;2023-05-10T03:06:37;1.47;;;1.20;;
58992;SDS011;44782;0.000;0.000;2023-05-10T03:13:56;1.03;;;1.00;;
58992;SDS011;44782;0.000;0.000;2023-05-10T03:16:27;1.90;;;1.40;;
58992;SDS011;44782;0.000;0.000;2023-05-10T03:19:09;1.30;;;1.20;;
58992;SDS011;44782;0.000;0.000;2023-05-10T03:21:32;1.30;;;1.20;;
58992;SDS011;44782;0.000;0.000;2023-05-10T03:23:55;1.20;;;1.10;;
58992;SDS011;44782;0.000;0.000;2023-05-10T03:26:20;1.33;;;1.20;;
58992;SDS011;44782;0.000;0.000;2023-05-10T03:28:40;1.50;;;1.23;;
58992;SDS011;44782;0.000;0.000;2023-05-10T03:30:56;1.43;;;1.17;;
58992;SDS011;44782;0.000;0.000;2023-05-10T03:33:13;1.30;;;1.20;;
58992;SDS011;44782;0.000;0.000;2023-05-10T03:35:29;1.93;;;1.27;;
58992;SDS011;44782;0.000;0.000;2023-05-10T03:37:45;1.73;;;1.30;;
58992;SDS011;44782;0.000;0.000;2023-05-10T03:40:01;1.30;;;1.20;;
58992;SDS011;44782;0.000;0.000;2023-05-10T03:42:17;1.47;;;1.27;;
58992;SDS011;44782;0.000;0.000;2023-05-10T03:44:33;1.30;;;1.20;;
58992;SDS011;44782;0.000;0.000;2023-05-10T03:46:49;1.20;;;1.10;;
58992;SDS011;44782;0.000;0.000;2023-05-10T03:49:04;1.30;;;1.10;;
58992;SDS011;44782;0.000;0.000;2023-05-10T03:51:20;1.23;;;1.13;;
58992;SDS011;44782;0.000;0.000;2023-05-10T03:53:36;1.20;;;1.10;;
58992;SDS011;44782;0.000;0.000;2023-05-10T03:55:51;1.27;;;1.10;;
58992;SDS011;44782;0.000;0.000;2023-05-10T03:58:10;1.30;;;1.20;;
58992;SDS011;44782;0.000;0.000;2023-05-10T04:00:26;1.13;;;1.03;;
58992;SDS011;44782;0.000;0.000;2023-05-10T04:02:41;1.00;;;1.00;;
58992;SDS011;44782;0.000;0.000;2023-05-10T04:04:57;1.27;;;1.17;;
58992;SDS011;44782;0.000;0.000;2023-05-10T04:07:13;1.53;;;1.20;;
58992;SDS011;44782;0.000;0.000;2023-05-10T04:09:28;1.00;;;0.97;;
58992;SDS011;44782;0.000;0.000;2023-05-10T04:11:44;1.20;;;1.10;;
58992;SDS011;44782;0.000;0.000;2023-05-10T04:14:00;1.30;;;1.20;;
58992;SDS011;44782;0.000;0.000;2023-05-10T04:16:15;1.60;;;1.10;;
58992;SDS011;44782;0.000;0.000;2023-05-10T04:18:31;1.10;;;1.00;;
58992;SDS011;44782;0.000;0.000;2023-05-10T04:20:46;1.10;;;1.00;;
58992;SDS011;44782;0.000;0.000;2023-05-10T04:23:02;1.30;;;1.17;;
58992;SDS011;44782;0.000;0.000;2023-05-10T04:25:18;1.00;;;1.00;;
58992;SDS011;44782;0.000;0.000;2023-05-10T04:27:33;1.37;;;1.27;;
58992;SDS011;44782;0.000;0.000;2023-05-10T04:29:49;1.20;;;1.10;;
58992;SDS011;44782;0.000;0.000;2023-05-10T04:32:05;1.20;;;1.10;;
58992;SDS011;44782;0.000;0.000;2023-05-10T04:34:21;1.87;;;1.13;;
58992;SDS011;44782;0.000;0.000;2023-05-10T04:36:36;1.07;;;1.00;;
58992;SDS011;44782;0.000;0.000;2023-05-10T04:38:52;1.20;;;1.10;;
58992;SDS011;44782;0.000;0.000;2023-05-10T04:41:08;0.90;;;0.90;;
58992;SDS011;44782;0.000;0.000;2023-05-10T04:43:25;1.27;;;1.17;;
58992;SDS011;44782;0.000;0.000;2023-05-10T04:45:41;1.00;;;1.00;;
58992;SDS011;44782;0.000;0.000;2023-05-10T04:47:56;1.30;;;1.20;;
58992;SDS011;44782;0.000;0.000;2023-05-10T04:50:12;1.20;;;1.10;;
58992;SDS011;44782;0.000;0.000;2023-05-10T04:52:28;1.23;;;1.10;;
58992;SDS011;44782;0.000;0.000;2023-05-10T04:54:43;0.90;;;0.90;;
58992;SDS011;44782;0.000;0.000;2023-05-10T04:56:59;0.90;;;0.90;;
58992;SDS011;44782;0.000;0.000;2023-05-10T04:59:14;1.17;;;0.90;;
58992;SDS011;44782;0.000;0.000;2023-05-10T05:01:30;1.20;;;1.10;;
58992;SDS011;44782;0.000;0.000;2023-05-10T05:03:46;1.10;;;0.90;;
58992;SDS011;44782;0.000;0.000;2023-05-10T05:06:02;1.50;;;0.90;;
58992;SDS011;44782;0.000;0.000;2023-05-10T05:08:17;1.43;;;1.10;;
58992;SDS011;44782;0.000;0.000;2023-05-10T05:10:33;1.07;;;1.03;;
58992;SDS011;44782;0.000;0.000;2023-05-10T05:12:49;1.10;;;1.00;;
58992;SDS011;44782;0.000;0.000;2023-05-10T05:15:04;1.17;;;1.00;;
58992;SDS011;44782;0.000;0.000;2023-05-10T05:17:24;1.17;;;1.07;;
58992;SDS011;44782;0.000;0.000;2023-05-10T05:19:40;1.03;;;0.93;;
58992;SDS011;44782;0.000;0.000;2023-05-10T05:21:55;1.20;;;1.10;;
58992;SDS011;44782;0.000;0.000;2023-05-10T05:24:11;0.93;;;0.90;;
58992;SDS011;44782;0.000;0.000;2023-05-10T05:26:27;1.30;;;1.10;;
58992;SDS011;44782;0.000;0.000;2023-05-10T05:28:43;1.30;;;1.10;;
58992;SDS011;44782;0.000;0.000;2023-05-10T05:30:58;1.20;;;1.10;;
58992;SDS011;44782;0.000;0.000;2023-05-10T05:33:14;1.30;;;1.20;;
58992;SDS011;44782;0.000;0.000;2023-05-10T05:35:30;1.00;;;1.00;;
58992;SDS011;44782;0.000;0.000;2023-05-10T05:37:46;0.90;;;0.90;;
58992;SDS011;44782;0.000;0.000;2023-05-10T05:40:01;1.27;;;1.17;;
58992;SDS011;44782;0.000;0.000;2023-05-10T05:42:17;1.10;;;0.97;;
58992;SDS011;44782;0.000;0.000;2023-05-10T05:44:33;1.07;;;1.00;;
58992;SDS011;44782;0.000;0.000;2023-05-10T05:46:49;0.90;;;0.90;;
58992;SDS011;44782;0.000;0.000;2023-05-10T05:49:04;1.30;;;1.20;;
58992;SDS011;44782;0.000;0.000;2023-05-10T05:51:20;1.20;;;1.00;;
58992;SDS011;44782;0.000;0.000;2023-05-10T05:53:36;1.10;;;1.00;;
58992;SDS011;44782;0.000;0.000;2023-05-10T05:55:55;0.93;;;0.93;;
58992;SDS011;44782;0.000;0.000;2023-05-10T05:58:12;1.00;;;1.00;;
58992;SDS011;44782;0.000;0.000;2023-05-10T06:00:30;1.17;;;1.10;;
58992;SDS011;44782;0.000;0.000;2023-05-10T06:02:46;1.10;;;1.00;;
58992;SDS011;44782;0.000;0.000;2023-05-10T06:05:02;1.47;;;1.10;;
58992;SDS011;44782;0.000;0.000;2023-05-10T06:07:19;1.10;;;1.03;;
58992;SDS011;44782;0.000;0.000;2023-05-10T06:09:35;0.90;;;0.90;;
58992;SDS011;44782;0.000;0.000;2023-05-10T06:11:50;1.20;;;1.10;;
58992;SDS011;44782;0.000;0.000;2023-05-10T06:14:06;1.20;;;1.10;;
58992;SDS011;44782;0.000;0.000;2023-05-10T06:16:22;1.17;;;1.07;;
58992;SDS011;44782;0.000;0.000;2023-05-10T06:18:38;0.97;;;0.97;;
58992;SDS011;44782;0.000;0.000;2023-05-10T06:20:56;1.73;;;1.10;;
58992;SDS011;44782;0.000;0.000;2023-05-10T06:23:12;1.07;;;0.97;;
58992;SDS011;44782;0.000;0.000;2023-05-10T06:25:28;1.20;;;1.10;;
58992;SDS011;44782;0.000;0.000;2023-05-10T06:27:44;1.20;;;1.10;;
58992;SDS011;44782;0.000;0.000;2023-05-10T06:29:59;0.80;;;0.80;;
58992;SDS011;44782;0.000;0.000;2023-05-10T06:32:15;1.20;;;1.10;;
58992;SDS011;44782;0.000;0.000;2023-05-10T06:34:31;1.10;;;1.00;;
58992;SDS011;44782;0.000;0.000;2023-05-10T06:36:47;0.97;;;0.97;;
58992;SDS011;44782;0.000;0.000;2023-05-10T06:39:02;1.10;;;1.10;;
58992;SDS011;44782;0.000;0.000;2023-05-10T06:41:18;1.27;;;1.10;;
58992;SDS011;44782;0.000;0.000;2023-05-10T06:43:34;1.10;;;1.10;;
58992;SDS011;44782;0.000;0.000;2023-05-10T06:45:49;0.90;;;0.90;;
58992;SDS011;44782;0.000;0.000;2023-05-10T06:48:05;1.03;;;1.03;;
58992;SDS011;44782;0.000;0.000;2023-05-10T06:50:21;1.20;;;1.10;;
58992;SDS011;44782;0.000;0.000;2023-05-10T06:52:36;0.90;;;0.90;;
58992;SDS011;44782;0.000;0.000;2023-05-10T06:54:52;1.00;;;1.00;;
58992;SDS011;44782;0.000;0.000;2023-05-10T06:57:08;1.10;;;1.00;;
58992;SDS011;44782;0.000;0.000;2023-05-10T06:59:23;0.90;;;0.90;;
58992;SDS011;44782;0.000;0.000;2023-05-10T07:01:39;1.00;;;1.00;;
58992;SDS011;44782;0.000;0.000;2023-05-10T07:03:55;1.10;;;1.00;;
58992;SDS011;44782;0.000;0.000;2023-05-10T07:06:11;1.20;;;1.07;;
58992;SDS011;44782;0.000;0.000;2023-05-10T07:08:26;1.30;;;1.20;;
58992;SDS011;44782;0.000;0.000;2023-05-10T07:10:42;1.10;;;1.10;;
58992;SDS011;44782;0.000;0.000;2023-05-10T07:12:58;1.00;;;1.00;;
58992;SDS011;44782;0.000;0.000;2023-05-10T07:15:14;0.90;;;0.90;;
58992;SDS011;44782;0.000;0.000;2023-05-10T07:17:30;1.10;;;1.00;;
58992;SDS011;44782;0.000;0.000;2023-05-10T07:19:48;1.20;;;1.10;;
58992;SDS011;44782;0.000;0.000;2023-05-10T07:22:03;1.20;;;1.10;;
58992;SDS011;44782;0.000;0.000;2023-05-10T07:24:19;0.90;;;0.90;;
58992;SDS011;44782;0.000;0.000;2023-05-10T07:26:35;1.10;;;1.00;;
58992;SDS011;44782;0.000;0.000;2023-05-10T07:28:50;1.47;;;1.10;;
58992;SDS011;44782;0.000;0.000;2023-05-10T07:31:06;1.20;;;1.10;;
58992;SDS011;44782;0.000;0.000;2023-05-10T07:33:21;1.40;;;0.97;;
58992;SDS011;44782;0.000;0.000;2023-05-10T07:35:37;1.00;;;1.00;;
58992;SDS011;44782;0.000;0.000;2023-05-10T07:37:53;1.20;;;1.10;;
58992;SDS011;44782;0.000;0.000;2023-05-10T07:40:09;2.03;;;1.10;;
58992;SDS011;44782;0.000;0.000;2023-05-10T07:42:24;1.03;;;0.97;;
58992;SDS011;44782;0.000;0.000;2023-05-10T07:44:40;1.00;;;1.00;;
58992;SDS011;44782;0.000;0.000;2023-05-10T07:46:56;1.27;;;1.20;;
58992;SDS011;44782;0.000;0.000;2023-05-10T07:49:12;1.33;;;1.20;;
58992;SDS011;44782;0.000;0.000;2023-05-10T07:51:28;1.10;;;1.10;;
58992;SDS011;44782;0.000;0.000;2023-05-10T07:53:43;1.10;;;1.00;;
58992;SDS011;44782;0.000;0.000;2023-05-10T07:55:59;1.10;;;1.10;;
58992;SDS011;44782;0.000;0.000;2023-05-10T07:58:34;1.23;;;1.10;;
58992;SDS011;44782;0.000;0.000;2023-05-10T08:00:50;1.00;;;1.00;;
58992;SDS011;44782;0.000;0.000;2023-05-10T08:03:06;1.27;;;1.17;;
58992;SDS011;44782;0.000;0.000;2023-05-10T08:05:21;1.20;;;1.10;;
58992;SDS011;44782;0.000;0.000;2023-05-10T08:07:37;1.20;;;1.10;;
58992;SDS011;44782;0.000;0.000;2023-05-10T08:09:53;1.33;;;1.23;;
58992;SDS011;44782;0.000;0.000;2023-05-10T08:12:08;1.07;;;1.00;;
58992;SDS011;44782;0.000;0.000;2023-05-10T08:14:24;1.13;;;1.10;;
58992;SDS011;44782;0.000;0.000;2023-05-10T08:16:40;1.17;;;1.07;;
58992;SDS011;44782;0.000;0.000;2023-05-10T08:18:55;1.30;;;1.20;;
58992;SDS011;44782;0.000;0.000;2023-05-10T08:21:11;1.33;;;1.23;;
58992;SDS011;44782;0.000;0.000;2023-05-10T08:23:27;1.40;;;1.20;;
58992;SDS011;44782;0.000;0.000;2023-05-10T08:25:43;1.50;;;1.40;;
58992;SDS011;44782;0.000;0.000;2023-05-10T08:27:58;1.47;;;1.27;;
58992;SDS011;44782;0.000;0.000;2023-05-10T08:30:14;1.67;;;1.40;;
58992;SDS011;44782;0.000;0.000;2023-05-10T08:32:30;1.47;;;1.37;;
58992;SDS011;44782;0.000;0.000;2023-05-10T08:34:45;1.27;;;1.17;;
58992;SDS011;44782;0.000;0.000;2023-05-10T08:37:01;1.63;;;1.40;;
58992;SDS011;44782;0.000;0.000;2023-05-10T08:39:17;1.27;;;1.13;;
58992;SDS011;44782;0.000;0.000;2023-05-10T08:41:33;1.30;;;1.20;;
58992;SDS011;44782;0.000;0.000;2023-05-10T08:43:49;1.53;;;1.37;;
58992;SDS011;44782;0.000;0.000;2023-05-10T08:46:05;1.33;;;1.23;;
58992;SDS011;44782;0.000;0.000;2023-05-10T08:48:24;1.33;;;1.23;;
58992;SDS011;44782;0.000;0.000;2023-05-10T08:50:40;1.40;;;1.30;;
58992;SDS011;44782;0.000;0.000;2023-05-10T08:52:57;1.40;;;1.30;;
58992;SDS011;44782;0.000;0.000;2023-05-10T08:55:16;1.50;;;1.40;;
58992;SDS011;44782;0.000;0.000;2023-05-10T08:57:31;1.40;;;1.30;;
58992;SDS011;44782;0.000;0.000;2023-05-10T08:59:47;1.30;;;1.20;;
58992;SDS011;44782;0.000;0.000;2023-05-10T09:02:03;1.40;;;1.30;;
58992;SDS011;44782;0.000;0.000;2023-05-10T09:04:20;1.40;;;1.30;;
58992;SDS011;44782;0.000;0.000;2023-05-10T09:06:36;1.80;;;1.47;;
58992;SDS011;44782;0.000;0.000;2023-05-10T09:08:52;1.70;;;1.60;;
58992;SDS011;44782;0.000;0.000;2023-05-10T09:11:08;1.50;;;1.40;;
58992;SDS011;44782;0.000;0.000;2023-05-10T09:13:24;2.10;;;1.40;;
58992;SDS011;44782;0.000;0.000;2023-05-10T09:15:41;1.70;;;1.40;;
58992;SDS011;44782;0.000;0.000;2023-05-10T09:17:57;1.50;;;1.40;;
58992;SDS011;44782;0.000;0.000;2023-05-10T09:20:14;1.73;;;1.37;;
58992;SDS011;44782;0.000;0.000;2023-05-10T09:22:30;1.50;;;1.40;;
58992;SDS011;44782;0.000;0.000;2023-05-10T09:24:46;2.50;;;1.70;;
58992;SDS011;44782;0.000;0.000;2023-05-10T09:27:02;1.60;;;1.50;;
58992;SDS011;44782;0.000;0.000;2023-05-10T09:29:17;1.70;;;1.50;;
58992;SDS011;44782;0.000;0.000;2023-05-10T09:34:18;2.03;;;1.47;;
58992;SDS011;44782;0.000;0.000;2023-05-10T09:36:53;1.80;;;1.70;;
58992;SDS011;44782;0.000;0.000;2023-05-10T09:39:11;2.03;;;1.57;;
58992;SDS011;44782;0.000;0.000;2023-05-10T09:41:27;1.67;;;1.57;;
58992;SDS011;44782;0.000;0.000;2023-05-10T09:43:43;2.00;;;1.80;;
58992;SDS011;44782;0.000;0.000;2023-05-10T09:45:58;2.33;;;1.70;;
58992;SDS011;44782;0.000;0.000;2023-05-10T09:48:15;2.37;;;1.80;;
58992;SDS011;44782;0.000;0.000;2023-05-10T09:50:30;2.13;;;1.73;;
58992;SDS011;44782;0.000;0.000;2023-05-10T09:52:47;1.87;;;1.70;;
58992;SDS011;44782;0.000;0.000;2023-05-10T09:55:04;2.13;;;1.60;;
58992;SDS011;44782;0.000;0.000;2023-05-10T09:57:21;1.83;;;1.63;;
58992;SDS011;44782;0.000;0.000;2023-05-10T09:59:38;2.13;;;1.60;;
58992;SDS011;44782;0.000;0.000;2023-05-10T10:01:59;1.97;;;1.70;;
58992;SDS011;44782;0.000;0.000;2023-05-10T10:04:15;1.70;;;1.60;;
58992;SDS011;44782;0.000;0.000;2023-05-10T10:06:37;2.37;;;2.00;;
58992;SDS011;44782;0.000;0.000;2023-05-10T10:08:54;1.83;;;1.60;;
58992;SDS011;44782;0.000;0.000;2023-05-10T10:11:11;2.07;;;1.87;;
58992;SDS011;44782;0.000;0.000;2023-05-10T10:13:26;2.40;;;1.80;;
58992;SDS011;44782;0.000;0.000;2023-05-10T10:15:42;2.20;;;1.67;;
58992;SDS011;44782;0.000;0.000;2023-05-10T10:18:02;2.63;;;1.90;;
58992;SDS011;44782;0.000;0.000;2023-05-10T10:20:20;1.93;;;1.70;;
58992;SDS011;44782;0.000;0.000;2023-05-10T10:22:37;2.37;;;1.90;;
58992;SDS011;44782;0.000;0.000;2023-05-10T10:24:53;2.43;;;2.20;;
58992;SDS011;44782;0.000;0.000;2023-05-10T10:27:33;2.20;;;1.60;;
58992;SDS011;44782;0.000;0.000;2023-05-10T10:34:43;2.57;;;1.80;;
58992;SDS011;44782;0.000;0.000;2023-05-10T10:37:03;2.40;;;1.60;;
58992;SDS011;44782;0.000;0.000;2023-05-10T10:39:20;2.17;;;1.90;;
58992;SDS011;44782;0.000;0.000;2023-05-10T10:41:37;2.17;;;1.70;;
58992;SDS011;44782;0.000;0.000;2023-05-10T10:44:53;2.20;;;1.70;;
58992;SDS011;44782;0.000;0.000;2023-05-10T10:49:42;2.03;;;1.77;;
58992;SDS011;44782;0.000;0.000;2023-05-10T10:55:17;2.40;;;1.90;;
58992;SDS011;44782;0.000;0.000;2023-05-10T10:57:25;3.03;;;1.87;;
58992;SDS011;44782;0.000;0.000;2023-05-10T10:59:44;2.60;;;2.00;;
58992;SDS011;44782;0.000;0.000;2023-05-10T11:02:01;2.43;;;1.80;;
58992;SDS011;44782;0.000;0.000;2023-05-10T11:04:18;1.90;;;1.70;;
58992;SDS011;44782;0.000;0.000;2023-05-10T11:06:34;3.47;;;1.93;;
58992;SDS011;44782;0.000;0.000;2023-05-10T11:08:51;3.47;;;2.10;;
58992;SDS011;44782;0.000;0.000;2023-05-10T11:11:07;2.97;;;2.00;;
58992;SDS011;44782;0.000;0.000;2023-05-10T11:13:27;2.50;;;1.90;;
58992;SDS011;44782;0.000;0.000;2023-05-10T11:15:52;2.33;;;1.80;;
58992;SDS011;44782;0.000;0.000;2023-05-10T11:18:23;2.53;;;1.90;;
58992;SDS011;44782;0.000;0.000;2023-05-10T11:20:49;3.00;;;2.03;;
58992;SDS011;44782;0.000;0.000;2023-05-10T11:23:12;2.00;;;1.80;;
58992;SDS011;44782;0.000;0.000;2023-05-10T11:25:30;3.70;;;2.07;;
58992;SDS011;44782;0.000;0.000;2023-05-10T11:27:47;2.23;;;1.93;;
58992;SDS011;44782;0.000;0.000;2023-05-10T11:30:04;2.63;;;1.90;;
58992;SDS011;44782;0.000;0.000;2023-05-10T11:32:22;3.87;;;2.00;;
58992;SDS011;44782;0.000;0.000;2023-05-10T11:34:38;3.40;;;2.00;;
58992;SDS011;44782;0.000;0.000;2023-05-10T11:36:54;2.57;;;1.93;;
58992;SDS011;44782;0.000;0.000;2023-05-10T11:39:10;3.33;;;2.20;;
58992;SDS011;44782;0.000;0.000;2023-05-10T11:41:27;3.00;;;1.87;;
58992;SDS011;44782;0.000;0.000;2023-05-10T11:43:45;2.23;;;2.00;;
58992;SDS011;44782;0.000;0.000;2023-05-10T11:46:02;3.23;;;2.00;;
58992;SDS011;44782;0.000;0.000;2023-05-10T11:48:18;2.43;;;1.70;;
58992;SDS011;44782;0.000;0.000;2023-05-10T11:50:37;2.43;;;2.00;;
58992;SDS011;44782;0.000;0.000;2023-05-10T11:52:53;2.73;;;2.07;;
58992;SDS011;44782;0.000;0.000;2023-05-10T11:55:12;2.60;;;1.90;;
58992;SDS011;44782;0.000;0.000;2023-05-10T11:57:27;3.10;;;2.00;;
58992;SDS011;44782;0.000;0.000;2023-05-10T11:59:43;2.53;;;2.10;;
58992;SDS011;44782;0.000;0.000;2023-05-10T12:01:59;2.53;;;1.87;;
58992;SDS011;44782;0.000;0.000;2023-05-10T12:04:15;3.00;;;1.83;;
58992;SDS011;44782;0.000;0.000;2023-05-10T12:06:31;2.80;;;2.20;;
58992;SDS011;44782;0.000;0.000;2023-05-10T12:08:52;3.20;;;2.13;;
58992;SDS011;44782;0.000;0.000;2023-05-10T12:11:09;2.33;;;2.00;;
58992;SDS011;44782;0.000;0.000;2023-05-10T12:13:27;2.50;;;1.83;;
58992;SDS011;44782;0.000;0.000;2023-05-10T12:15:44;2.73;;;1.70;;
58992;SDS011;44782;0.000;0.000;2023-05-10T12:17:59;2.27;;;1.90;;
58992;SDS011;44782;0.000;0.000;2023-05-10T12:20:16;2.60;;;1.90;;
58992;SDS011;44782;0.000;0.000;2023-05-10T12:22:33;2.77;;;1.90;;
58992;SDS011;44782;0.000;0.000;2023-05-10T12:24:50;2.60;;;2.20;;
58992;SDS011;44782;0.000;0.000;2023-05-10T12:27:05;1.97;;;1.73;;
58992;SDS011;44782;0.000;0.000;2023-05-10T12:29:23;2.07;;;1.70;;
58992;SDS011;44782;0.000;0.000;2023-05-10T12:31:51;3.10;;;2.17;;
58992;SDS011;44782;0.000;0.000;2023-05-10T12:34:08;2.03;;;1.83;;
58992;SDS011;44782;0.000;0.000;2023-05-10T12:36:24;3.90;;;2.03;;
58992;SDS011;44782;0.000;0.000;2023-05-10T12:38:41;2.63;;;1.97;;
58992;SDS011;44782;0.000;0.000;2023-05-10T12:41:03;3.20;;;2.10;;
58992;SDS011;44782;0.000;0.000;2023-05-10T12:43:20;3.13;;;1.90;;
58992;SDS011;44782;0.000;0.000;2023-05-10T12:45:35;2.17;;;1.80;;
58992;SDS011;44782;0.000;0.000;2023-05-10T12:47:51;2.37;;;1.83;;
58992;SDS011;44782;0.000;0.000;2023-05-10T12:50:07;1.97;;;1.73;;
58992;SDS011;44782;0.000;0.000;2023-05-10T12:52:23;2.40;;;1.90;;
58992;SDS011;44782;0.000;0.000;2023-05-10T12:54:40;2.83;;;1.90;;
58992;SDS011;44782;0.000;0.000;2023-05-10T12:56:55;2.33;;;1.83;;
58992;SDS011;44782;0.000;0.000;2023-05-10T12:59:13;3.17;;;2.17;;
58992;SDS011;44782;0.000;0.000;2023-05-10T13:01:29;3.80;;;2.33;;
58992;SDS011;44782;0.000;0.000;2023-05-10T13:03:44;2.10;;;1.90;;
58992;SDS011;44782;0.000;0.000;2023-05-10T13:06:00;1.97;;;1.77;;
58992;SDS011;44782;0.000;0.000;2023-05-10T13:08:16;3.23;;;2.10;;
58992;SDS011;44782;0.000;0.000;2023-05-10T13:10:31;2.87;;;1.90;;
58992;SDS011;44782;0.000;0.000;2023-05-10T13:12:47;2.97;;;2.10;;
58992;SDS011;44782;0.000;0.000;2023-05-10T13:15:03;3.40;;;2.03;;
58992;SDS011;44782;0.000;0.000;2023-05-10T13:17:19;2.70;;;1.90;;
58992;SDS011;44782;0.000;0.000;2023-05-10T13:19:34;2.63;;;2.00;;
58992;SDS011;44782;0.000;0.000;2023-05-10T13:21:50;3.03;;;1.80;;
58992;SDS011;44782;0.000;0.000;2023-05-10T13:24:06;2.60;;;1.90;;
58992;SDS011;44782;0.000;0.000;2023-05-10T13:26:22;2.30;;;2.10;;
58992;SDS011;44782;0.000;0.000;2023-05-10T13:28:38;2.87;;;2.00;;
58992;SDS011;44782;0.000;0.000;2023-05-10T13:30:53;2.93;;;2.00;;
58992;SDS011;44782;0.000;0.000;2023-05-10T13:33:09;2.00;;;1.83;;
58992;SDS011;44782;0.000;0.000;2023-05-10T13:35:25;1.93;;;1.70;;
58992;SDS011;44782;0.000;0.000;2023-05-10T13:37:40;2.23;;;1.97;;
58992;SDS011;44782;0.000;0.000;2023-05-10T13:39:56;2.80;;;2.00;;
58992;SDS011;44782;0.000;0.000;2023-05-10T13:42:11;2.70;;;1.90;;
58992;SDS011;44782;0.000;0.000;2023-05-10T13:44:27;2.43;;;2.17;;
58992;SDS011;44782;0.000;0.000;2023-05-10T13:46:43;1.93;;;1.70;;
58992;SDS011;44782;0.000;0.000;2023-05-10T13:48:59;2.30;;;2.00;;
58992;SDS011;44782;0.000;0.000;2023-05-10T13:51:15;2.23;;;1.90;;
58992;SDS011;44782;0.000;0.000;2023-05-10T13:53:30;2.10;;;1.70;;
58992;SDS011;44782;0.000;0.000;2023-05-10T13:55:46;3.50;;;2.20;;
58992;SDS011;44782;0.000;0.000;2023-05-10T13:58:02;3.10;;;2.07;;
58992;SDS011;44782;0.000;0.000;2023-05-10T14:00:17;2.47;;;2.03;;
58992;SDS011;44782;0.000;0.000;2023-05-10T14:02:33;2.50;;;1.90;;
58992;SDS011;44782;0.000;0.000;2023-05-10T14:04:49;2.67;;;2.17;;
58992;SDS011;44782;0.000;0.000;2023-05-10T14:07:04;2.97;;;1.87;;
58992;SDS011;44782;0.000;0.000;2023-05-10T14:09:20;2.73;;;1.83;;
58992;SDS011;44782;0.000;0.000;2023-05-10T14:11:36;2.27;;;1.80;;
58992;SDS011;44782;0.000;0.000;2023-05-10T14:13:51;3.37;;;1.90;;
58992;SDS011;44782;0.000;0.000;2023-05-10T14:16:07;3.40;;;1.90;;
58992;SDS011;44782;0.000;0.000;2023-05-10T14:18:23;2.47;;;1.73;;
58992;SDS011;44782;0.000;0.000;2023-05-10T14:20:38;2.93;;;1.90;;
58992;SDS011;44782;0.000;0.000;2023-05-10T14:22:54;3.37;;;2.20;;
58992;SDS011;44782;0.000;0.000;2023-05-10T14:25:10;2.33;;;1.97;;
58992;SDS011;44782;0.000;0.000;2023-05-10T14:27:26;2.60;;;1.90;;